Time;durP1;ratioP1;P1;durP2;ratioP2;P2;SDS_P1;SDS_P2;PMS_P1;PMS_P2;Temp;Humidity;BMP_temperature;BMP_pressure;BME280_temperature;BME280_humidity;BME280_pressure;Samples;Min_cycle;Max_cycle;Signal;HPM_P1;HPM_P2
2022/08/18 00:02:24;;;;;;;13.90;12.10;;;;;;;21.56;75.53;97590.50;105694;1281;23285;-83
2022/08/18 00:04:59;;;;;;;12.70;11.30;;;;;;;21.46;76.19;97593.94;105645;1281;24947;-82
2022/08/18 00:07:31;;;;;;;14.60;13.10;;;;;;;21.53;76.91;97591.88;105666;1281;22995;-82
2022/08/18 00:10:00;;;;;;;17.40;15.10;;;;;;;21.65;76.84;97583.05;105378;1281;22538;-82
2022/08/18 00:12:33;;;;;;;14.80;12.40;;;;;;;21.77;76.53;97582.52;105412;1281;22790;-82
2022/08/18 00:15:04;;;;;;;13.80;12.60;;;;;;;21.87;76.13;97574.05;105445;1281;25382;-82
2022/08/18 00:17:33;;;;;;;13.10;11.90;;;;;;;21.89;75.59;97568.27;105666;1281;24126;-82
2022/08/18 00:20:08;;;;;;;12.40;11.10;;;;;;;21.78;75.21;97561.91;105536;1281;22715;-82
2022/08/18 00:22:38;;;;;;;11.30;10.30;;;;;;;21.67;75.20;97565.98;105942;1282;22727;-83
2022/08/18 00:25:11;;;;;;;11.50;10.30;;;;;;;21.58;75.23;97570.08;106540;1281;22874;-83
2022/08/18 00:27:40;;;;;;;11.20;10.00;;;;;;;21.52;75.50;97580.75;106326;1283;22551;-80
2022/08/18 00:30:13;;;;;;;11.70;10.60;;;;;;;21.48;75.36;97584.02;105562;1281;22866;-81
2022/08/18 00:32:45;;;;;;;12.40;10.50;;;;;;;21.44;75.56;97578.48;105632;1281;22559;-82
2022/08/18 00:35:19;;;;;;;12.90;11.00;;;;;;;21.43;75.98;97575.03;105670;1281;23001;-82
2022/08/18 00:37:48;;;;;;;13.00;11.70;;;;;;;21.45;76.50;97572.46;105673;1281;22700;-82
2022/08/18 00:40:19;;;;;;;11.60;10.50;;;;;;;21.47;76.11;97567.32;105633;1281;24281;-82
2022/08/18 00:42:51;;;;;;;12.80;11.40;;;;;;;21.46;75.98;97565.52;105648;1281;25369;-82
2022/08/18 00:45:27;;;;;;;14.60;11.90;;;;;;;21.48;75.91;97565.91;105600;1281;24350;-82
2022/08/18 00:47:55;;;;;;;14.80;12.20;;;;;;;21.47;76.10;97569.13;105636;1281;22550;-82
2022/08/18 00:50:34;;;;;;;13.70;12.40;;;;;;;21.46;76.09;97567.07;105608;1281;25421;-82
2022/08/18 00:53:44;;;;;;;15.80;13.10;;;;;;;21.45;76.08;97560.88;105616;1281;23950;-82
2022/08/18 00:56:27;;;;;;;17.30;13.80;;;;;;;21.40;76.36;97556.77;104535;1290;22785;-83
2022/08/18 00:59:03;;;;;;;14.00;12.60;;;;;;;21.40;76.38;97556.36;104610;1291;25383;-82
2022/08/18 01:01:33;;;;;;;13.80;12.20;;;;;;;21.45;77.01;97558.52;104569;1291;25470;-82
2022/08/18 01:04:11;;;;;;;17.70;15.20;;;;;;;21.51;76.55;97563.11;104756;1290;25473;-82
2022/08/18 01:06:47;;;;;;;15.70;14.00;;;;;;;21.38;76.02;97564.64;104585;1290;24123;-82
2022/08/18 01:09:16;;;;;;;15.90;14.10;;;;;;;21.30;76.70;97563.85;104647;1290;24422;-82
2022/08/18 01:11:45;;;;;;;14.30;12.90;;;;;;;21.31;76.82;97561.90;104731;1290;22537;-82
2022/08/18 01:14:17;;;;;;;14.70;13.30;;;;;;;21.31;76.93;97559.63;104700;1290;25427;-82
2022/08/18 01:22:22;;;;;;;15.40;14.00;;;;;;;21.32;76.62;97559.11;104671;1290;22747;-82
2022/08/18 01:27:40;;;;;;;15.10;13.60;;;;;;;21.10;76.76;97556.23;104721;1290;22578;-82
2022/08/18 01:30:13;;;;;;;13.60;12.10;;;;;;;21.06;76.79;97554.86;104896;1282;22661;-82
2022/08/18 01:32:44;;;;;;;14.80;12.30;;;;;;;21.03;77.06;97553.18;105462;1282;24288;-82
2022/08/18 01:35:16;;;;;;;18.50;14.80;;;;;;;20.99;77.59;97552.59;105400;1282;22552;-82
2022/08/18 01:37:44;;;;;;;16.50;14.80;;;;;;;21.01;78.08;97553.16;105472;1282;24299;-82
2022/08/18 01:40:15;;;;;;;15.00;13.50;;;;;;;21.03;78.16;97558.33;105460;1282;24219;-82
2022/08/18 01:43:04;;;;;;;15.40;14.00;;;;;;;21.03;77.73;97558.71;105276;1282;25395;-82
2022/08/18 01:45:32;;;;;;;16.10;14.40;;;;;;;20.98;77.55;97547.10;105309;1282;24553;-81
2022/08/18 01:48:00;;;;;;;16.80;14.00;;;;;;;20.92;77.66;97548.07;105291;1283;25409;-81
2022/08/18 01:50:29;;;;;;;18.10;16.10;;;;;;;20.88;78.27;97552.08;105340;1282;23538;-82
2022/08/18 01:52:57;;;;;;;16.70;15.10;;;;;;;20.83;78.14;97548.67;105360;1282;25329;-81
2022/08/18 01:55:27;;;;;;;15.60;14.00;;;;;;;20.84;78.85;97547.66;105322;1282;24104;-82
2022/08/18 01:57:55;;;;;;;17.20;15.10;;;;;;;20.92;78.72;97544.06;105392;1282;24436;-81
2022/08/18 02:00:25;;;;;;;15.80;14.10;;;;;;;20.93;78.41;97542.58;105372;1282;24426;-81
2022/08/18 02:02:53;;;;;;;15.40;13.90;;;;;;;20.93;78.60;97540.77;105283;1282;24109;-81
2022/08/18 02:05:50;;;;;;;14.50;13.00;;;;;;;20.87;78.78;97534.02;105270;1282;24497;-82
2022/08/18 02:08:30;;;;;;;16.10;14.40;;;;;;;20.86;78.93;97531.40;105333;1282;24230;-82
2022/08/18 02:11:02;;;;;;;14.60;12.50;;;;;;;20.85;79.02;97535.80;105352;1282;22692;-82
2022/08/18 02:13:30;;;;;;;15.60;14.00;;;;;;;20.87;78.85;97535.41;105346;1282;22563;-82
2022/08/18 02:15:58;;;;;;;15.90;13.70;;;;;;;20.90;79.15;97535.91;105283;1282;24487;-82
2022/08/18 02:18:29;;;;;;;15.70;14.30;;;;;;;20.94;79.35;97535.00;105448;1281;24437;-82
2022/08/18 02:21:18;;;;;;;16.30;14.60;;;;;;;20.99;79.46;97530.67;105422;1281;25465;-82
2022/08/18 02:23:47;;;;;;;17.00;15.40;;;;;;;21.02;79.31;97523.75;105436;1281;24754;-81
2022/08/18 02:26:22;;;;;;;14.70;13.20;;;;;;;20.97;79.23;97516.34;105425;1281;23143;-80
2022/08/18 02:28:51;;;;;;;15.50;13.40;;;;;;;20.96;79.20;97510.30;105461;1281;22778;-81
2022/08/18 02:31:21;;;;;;;15.80;14.20;;;;;;;20.93;79.33;97504.41;105410;1281;22700;-81
2022/08/18 02:33:50;;;;;;;16.90;15.00;;;;;;;20.92;79.57;97500.95;105478;1281;22562;-82
2022/08/18 02:36:20;;;;;;;16.40;13.90;;;;;;;20.94;79.53;97503.33;105262;1282;22872;-82
2022/08/18 02:38:52;;;;;;;19.50;17.50;;;;;;;20.99;80.27;97508.06;105408;1281;24235;-81
2022/08/18 02:41:27;;;;;;;17.20;15.60;;;;;;;21.11;80.81;97514.44;105354;1281;22725;-81
2022/08/18 02:43:57;;;;;;;18.90;16.70;;;;;;;21.19;80.51;97512.15;105333;1282;25479;-81
2022/08/18 02:46:26;;;;;;;18.60;16.60;;;;;;;21.27;80.32;97512.23;105437;1281;22977;-82
2022/08/18 02:48:59;;;;;;;18.10;16.20;;;;;;;21.36;80.12;97520.30;105422;1281;24248;-85
2022/08/18 02:51:27;;;;;;;20.80;18.70;;;;;;;21.40;80.18;97522.06;105449;1281;22934;-84
2022/08/18 02:53:59;;;;;;;21.20;19.10;;;;;;;21.49;80.50;97526.84;105316;1282;22623;-83
2022/08/18 02:56:29;;;;;;;21.80;19.60;;;;;;;21.59;80.26;97524.81;105257;1281;25311;-82
2022/08/18 02:59:12;;;;;;;22.60;20.30;;;;;;;21.64;79.88;97528.36;105403;1281;22559;-83
2022/08/18 03:01:45;;;;;;;24.80;22.10;;;;;;;21.65;79.46;97528.45;105392;1281;25393;-83
2022/08/18 03:04:21;;;;;;;25.50;23.10;;;;;;;21.49;78.53;97527.46;105332;1281;24338;-82
2022/08/18 03:07:00;;;;;;;23.80;21.50;;;;;;;21.23;78.44;97533.95;105352;1282;23071;-83
2022/08/18 03:09:29;;;;;;;23.50;20.20;;;;;;;20.99;78.59;97540.53;105458;1281;22560;-83
2022/08/18 03:11:57;;;;;;;19.80;18.00;;;;;;;20.76;78.74;97541.85;105521;1281;22543;-83
2022/08/18 03:14:27;;;;;;;21.10;18.90;;;;;;;20.59;79.24;97541.75;105804;1281;25225;-81
2022/08/18 03:16:55;;;;;;;19.50;17.30;;;;;;;20.54;79.93;97545.91;106065;1281;22633;-82
2022/08/18 03:19:28;;;;;;;20.00;18.00;;;;;;;20.63;80.77;97542.73;105870;1281;22567;-82
2022/08/18 03:21:58;;;;;;;20.60;17.90;;;;;;;20.80;80.92;97539.95;105713;1281;24795;-83
2022/08/18 03:24:30;;;;;;;;;;;;;;;20.85;80.39;97544.38;105589;1281;26683;-83
2022/08/18 03:27:05;;;;;;;21.10;19.30;;;;;;;20.90;80.95;97547.10;105592;1281;24531;-83
2022/08/18 03:29:35;;;;;;;19.40;17.70;;;;;;;20.87;80.67;97550.59;105589;1281;24444;-83
2022/08/18 03:32:05;;;;;;;19.00;17.00;;;;;;;20.94;80.72;97549.58;105550;1281;22712;-83
2022/08/18 03:34:34;;;;;;;20.00;18.00;;;;;;;20.95;79.72;97550.36;105483;1282;24216;-82
2022/08/18 03:37:02;;;;;;;17.10;15.40;;;;;;;20.90;80.01;97555.63;105487;1281;24369;-82
2022/08/18 03:39:29;;;;;;;18.90;17.00;;;;;;;20.91;79.94;97555.48;105423;1281;25468;-81
2022/08/18 03:41:58;;;;;;;19.60;17.50;;;;;;;20.91;80.03;97556.41;105473;1281;23042;-82
2022/08/18 03:44:31;;;;;;;20.50;18.60;;;;;;;20.90;80.10;97556.48;105460;1281;24410;-82
2022/08/18 03:47:02;;;;;;;16.90;15.30;;;;;;;20.82;79.60;97557.80;105510;1281;25355;-82
2022/08/18 03:49:32;;;;;;;16.60;14.90;;;;;;;20.75;80.10;97553.20;105448;1278;24414;-82
2022/08/18 03:52:02;;;;;;;15.00;13.50;;;;;;;20.79;80.24;97555.98;105497;1281;23681;-81
2022/08/18 03:54:30;;;;;;;15.80;14.30;;;;;;;20.93;81.22;97558.02;105441;1281;25528;-81
2022/08/18 03:56:59;;;;;;;16.40;14.60;;;;;;;21.08;80.59;97556.76;105511;1282;24298;-82
2022/08/18 03:59:45;;;;;;;19.70;18.00;;;;;;;21.18;79.97;97561.70;105383;1281;22559;-82
2022/08/18 04:02:14;;;;;;;18.60;16.50;;;;;;;21.20;79.42;97561.55;105407;1281;24202;-81
2022/08/18 04:04:42;;;;;;;20.60;18.60;;;;;;;21.05;79.36;97560.79;105459;1281;22753;-82
2022/08/18 04:07:13;;;;;;;17.70;16.10;;;;;;;21.03;79.34;97566.18;105426;1281;25526;-81
2022/08/18 04:09:42;;;;;;;18.50;16.50;;;;;;;20.89;78.61;97565.16;105338;1282;22559;-82
2022/08/18 04:12:12;;;;;;;19.70;17.40;;;;;;;20.70;78.54;97570.73;105424;1281;22629;-82
2022/08/18 04:14:47;;;;;;;18.60;16.70;;;;;;;20.67;79.75;97569.45;105436;1281;24576;-84
2022/08/18 04:17:22;;;;;;;18.40;16.40;;;;;;;20.73;80.04;97567.33;105479;1281;24319;-81
2022/08/18 04:19:52;;;;;;;19.70;17.70;;;;;;;20.81;79.81;97564.83;105380;1281;22566;-82
2022/08/18 04:22:22;;;;;;;19.20;17.30;;;;;;;20.83;79.25;97565.02;105475;1281;25383;-82
2022/08/18 04:24:51;;;;;;;17.50;15.80;;;;;;;20.80;78.83;97571.08;105494;1281;24216;-81
2022/08/18 04:27:20;;;;;;;20.10;17.50;;;;;;;20.67;78.57;97576.42;105343;1282;25360;-82
2022/08/18 04:29:49;;;;;;;20.20;18.20;;;;;;;20.65;79.42;97573.50;105452;1281;25244;-81
2022/08/18 04:32:18;;;;;;;20.10;18.00;;;;;;;20.70;79.91;97573.95;105378;1281;24412;-81
2022/08/18 04:34:46;;;;;;;17.60;15.90;;;;;;;20.74;79.62;97575.31;105308;1281;22544;-81
2022/08/18 04:37:15;;;;;;;15.20;13.80;;;;;;;20.85;80.23;97574.65;105406;1281;24124;-81
2022/08/18 04:39:44;;;;;;;22.10;20.00;;;;;;;21.02;79.96;97579.78;105478;1281;23426;-83
2022/08/18 04:42:13;;;;;;;18.20;16.40;;;;;;;21.09;79.27;97582.27;105491;1281;24272;-82
2022/08/18 04:44:42;;;;;;;19.00;17.10;;;;;;;21.01;78.64;97588.14;105459;1281;23942;-82
2022/08/18 04:47:12;;;;;;;18.50;16.60;;;;;;;21.00;79.35;97592.42;105430;1281;22550;-81
2022/08/18 04:49:40;;;;;;;21.20;19.00;;;;;;;21.05;79.96;97593.73;105458;1281;24369;-81
2022/08/18 04:55:10;;;;;;;17.50;15.50;;;;;;;21.33;79.13;97591.14;105506;1281;23930;-83
2022/08/18 04:57:38;;;;;;;15.70;14.10;;;;;;;21.47;79.28;97590.73;105546;1281;26610;-81
2022/08/18 05:00:10;;;;;;;20.50;17.70;;;;;;;21.60;79.00;97587.23;105382;1281;23939;-82
2022/08/18 05:02:39;;;;;;;20.50;18.40;;;;;;;21.67;78.57;97585.48;105572;1281;24227;-81
2022/08/18 05:05:07;;;;;;;21.00;18.90;;;;;;;21.70;78.59;97581.92;105487;1281;22563;-81
2022/08/18 05:07:35;;;;;;;22.80;19.60;;;;;;;21.68;78.12;97588.64;105463;1281;22712;-81
2022/08/18 05:10:04;;;;;;;19.90;17.80;;;;;;;21.58;77.89;97592.48;105567;1281;22559;-81
2022/08/18 05:12:32;;;;;;;22.80;17.30;;;;;;;21.52;78.32;97591.95;105490;1281;24373;-80
2022/08/18 05:15:00;;;;;;;24.40;17.20;;;;;;;21.54;78.61;97590.95;105453;1281;22565;-81
2022/08/18 05:17:28;;;;;;;14.90;13.40;;;;;;;21.62;78.94;97588.36;105562;1281;22492;-83
2022/08/18 05:19:59;;;;;;;15.30;13.80;;;;;;;21.74;79.10;97584.54;105745;1283;22867;-82
2022/08/18 05:22:29;;;;;;;15.40;13.10;;;;;;;21.88;78.83;97583.23;105952;1281;25390;-81
2022/08/18 05:24:58;;;;;;;15.30;12.30;;;;;;;21.98;78.63;97585.73;105674;1281;24677;-80
2022/08/18 05:28:10;;;;;;;14.70;13.00;;;;;;;22.05;78.41;97579.58;105519;1281;24435;-81
2022/08/18 05:30:40;;;;;;;;;;;;;;;22.12;78.80;97572.56;105525;1281;22688;-83
2022/08/18 05:33:10;;;;;;;20.70;13.80;;;;;;;22.18;78.60;97578.35;105499;1281;22707;-82
2022/08/18 05:35:53;;;;;;;15.10;13.50;;;;;;;22.26;78.91;97583.17;105485;1281;22614;-80
2022/08/18 05:38:41;;;;;;;19.10;14.50;;;;;;;22.32;78.69;97580.79;105422;1281;22622;-80
2022/08/18 05:41:13;;;;;;;16.60;13.30;;;;;;;22.44;78.64;97576.85;105484;1281;25495;-80
2022/08/18 05:43:45;;;;;;;16.50;13.80;;;;;;;22.55;78.62;97579.34;105435;1281;24256;-82
2022/08/18 05:46:23;;;;;;;14.70;13.00;;;;;;;22.69;78.51;97585.90;105416;1281;22539;-80
2022/08/18 05:48:51;;;;;;;15.50;12.50;;;;;;;22.83;78.44;97586.19;105160;1281;23453;-81
2022/08/18 05:51:29;;;;;;;15.30;13.60;;;;;;;22.96;78.31;97585.23;105520;1281;24437;-80
2022/08/18 05:56:49;;;;;;;19.40;16.00;;;;;;;23.04;77.93;97590.98;105615;1281;25466;-80
2022/08/18 05:59:22;;;;;;;15.50;13.70;;;;;;;23.03;77.77;97590.13;105538;1281;25301;-80
2022/08/18 06:02:14;;;;;;;15.30;13.70;;;;;;;23.09;78.19;97594.08;105430;1281;25322;-82
2022/08/18 06:04:48;;;;;;;18.10;13.90;;;;;;;23.22;77.86;97595.04;105220;1281;24428;-83
2022/08/18 06:07:36;;;;;;;15.90;13.30;;;;;;;23.28;77.89;97593.33;105515;1281;22689;-83
2022/08/18 06:10:07;;;;;;;17.90;13.60;;;;;;;23.32;77.57;97597.66;105511;1281;25335;-83
2022/08/18 06:12:42;;;;;;;16.70;12.80;;;;;;;23.33;77.47;97598.27;105342;1283;26514;-83
2022/08/18 06:15:26;;;;;;;17.90;13.20;;;;;;;23.34;77.17;97601.50;105292;1282;22547;-83
2022/08/18 06:18:17;;;;;;;18.50;13.00;;;;;;;23.41;77.03;97603.02;105416;1281;25575;-83
2022/08/18 06:21:10;;;;;;;13.20;11.80;;;;;;;23.47;77.12;97598.94;104657;1288;25383;-83
2022/08/18 06:24:02;;;;;;;15.60;12.10;;;;;;;23.57;77.01;97593.27;104739;1287;25408;-84
2022/08/18 06:26:52;;;;;;;15.70;13.30;;;;;;;23.66;76.75;97593.90;104669;1288;22677;-84
2022/08/18 06:29:49;;;;;;;17.90;12.70;;;;;;;23.74;76.43;97598.48;104817;1287;24447;-84
2022/08/18 06:32:52;;;;;;;18.10;13.70;;;;;;;23.84;76.37;97607.92;104675;1288;22582;-83
2022/08/18 06:35:35;;;;;;;17.70;11.80;;;;;;;23.91;75.86;97607.99;104616;1290;23968;-84
2022/08/18 06:38:39;;;;;;;15.40;12.40;;;;;;;24.03;76.03;97610.19;104640;1288;22710;-84
2022/08/18 06:41:41;;;;;;;20.20;13.20;;;;;;;24.12;75.78;97615.45;105254;1287;25437;-84
2022/08/18 06:44:18;;;;;;;16.40;12.50;;;;;;;24.22;75.56;97622.74;104849;1287;27814;-84
2022/08/18 06:47:27;;;;;;;18.10;12.80;;;;;;;24.28;75.10;97621.33;104815;1287;22724;-82
2022/08/18 06:50:10;;;;;;;16.80;12.40;;;;;;;24.32;74.99;97622.10;104174;1294;22617;-84
2022/08/18 06:52:52;;;;;;;13.60;12.00;;;;;;;24.34;74.25;97622.18;104289;1293;25344;-83
2022/08/18 06:55:35;;;;;;;14.20;12.80;;;;;;;24.34;74.17;97623.12;104367;1293;24509;-84
2022/08/18 06:58:11;;;;;;;14.10;12.30;;;;;;;24.42;74.08;97627.98;104386;1291;25514;-83
2022/08/18 07:00:54;;;;;;;15.00;11.90;;;;;;;24.46;73.70;97631.86;104639;1290;22541;-84
2022/08/18 07:03:41;;;;;;;15.00;11.50;;;;;;;24.51;73.03;97633.35;104699;1291;24488;-84
2022/08/18 07:06:30;;;;;;;13.30;12.00;;;;;;;24.54;72.97;97630.02;104566;1291;23958;-84
2022/08/18 07:09:20;;;;;;;13.60;12.30;;;;;;;24.60;72.91;97627.41;104642;1291;22637;-84
2022/08/18 07:12:05;;;;;;;16.20;11.60;;;;;;;24.69;72.65;97623.93;104683;1291;22707;-83
2022/08/18 07:14:49;;;;;;;14.70;12.20;;;;;;;24.75;71.73;97621.69;104770;1291;22759;-83
2022/08/18 07:17:23;;;;;;;16.40;11.40;;;;;;;24.78;71.87;97621.29;104666;1290;24300;-83
2022/08/18 07:20:21;;;;;;;13.90;12.50;;;;;;;24.86;71.54;97615.02;104635;1289;22837;-84
2022/08/18 07:22:59;;;;;;;18.00;11.40;;;;;;;24.94;71.57;97612.00;104635;1290;25342;-83
2022/08/18 07:25:38;;;;;;;14.00;12.40;;;;;;;25.03;71.14;97613.30;104779;1281;25635;-84
2022/08/18 07:28:27;;;;;;;14.50;11.60;;;;;;;25.07;70.19;97612.02;105522;1281;22699;-83
2022/08/18 07:31:33;;;;;;;20.00;12.10;;;;;;;25.08;70.15;97612.25;105479;1281;22546;-83
2022/08/18 07:34:04;;;;;;;12.60;11.30;;;;;;;25.10;69.92;97613.27;105414;1281;24316;-83
2022/08/18 07:36:40;;;;;;;13.50;10.80;;;;;;;25.13;69.48;97609.02;105473;1281;22670;-84
2022/08/18 07:39:34;;;;;;;20.20;11.80;;;;;;;25.23;69.75;97609.36;105488;1281;25365;-83
2022/08/18 07:42:17;;;;;;;17.50;12.00;;;;;;;25.34;69.41;97610.71;105287;1282;24220;-83
2022/08/18 07:45:16;;;;;;;14.40;11.30;;;;;;;25.40;68.76;97610.61;105434;1281;22560;-84
2022/08/18 07:47:53;;;;;;;15.90;11.60;;;;;;;25.42;68.29;97610.75;105385;1281;22650;-83
2022/08/18 07:50:24;;;;;;;13.80;11.50;;;;;;;25.46;68.55;97609.38;105411;1281;23948;-83
2022/08/18 07:53:35;;;;;;;15.90;12.00;;;;;;;25.55;67.24;97604.81;105423;1281;25407;-84
2022/08/18 07:56:18;;;;;;;14.10;11.90;;;;;;;25.60;66.73;97605.26;105464;1281;22652;-83
2022/08/18 07:58:57;;;;;;;16.00;11.90;;;;;;;25.65;66.67;97612.08;105272;1281;23978;-84
2022/08/18 08:01:40;;;;;;;14.30;12.50;;;;;;;25.72;66.94;97607.60;105559;1281;23447;-84
2022/08/18 08:04:20;;;;;;;12.40;11.10;;;;;;;25.80;66.60;97607.70;105544;1281;24306;-84
2022/08/18 08:07:24;;;;;;;15.90;10.70;;;;;;;25.88;66.29;97601.99;105490;1281;22704;-84
2022/08/18 08:10:11;;;;;;;19.90;10.50;;;;;;;25.95;65.62;97605.48;104752;1288;22744;-89
2022/08/18 08:12:44;;;;;;;12.80;10.30;;;;;;;26.03;65.47;97607.06;105328;1289;24211;-88
2022/08/18 08:15:29;;;;;;;15.20;11.20;;;;;;;26.10;64.60;97608.33;104890;1290;22730;-87
2022/08/18 08:18:11;;;;;;;13.20;11.30;;;;;;;26.15;64.05;97613.26;104928;1290;22869;-87
2022/08/18 08:21:12;;;;;;;16.40;10.60;;;;;;;26.23;64.53;97613.73;105014;1290;22729;-87
2022/08/18 08:24:02;;;;;;;14.60;10.80;;;;;;;26.33;64.51;97610.55;104466;1293;22565;-89
2022/08/18 08:27:07;;;;;;;16.10;10.40;;;;;;;26.45;64.33;97606.95;104510;1294;25806;-87
2022/08/18 08:29:44;;;;;;;14.90;10.40;;;;;;;26.54;64.49;97612.17;104567;1294;22898;-87
2022/08/18 08:32:23;;;;;;;16.40;11.70;;;;;;;26.68;63.26;97621.41;104416;1294;22770;-86
2022/08/18 08:35:01;;;;;;;12.10;10.30;;;;;;;26.73;62.74;97629.88;104409;1294;22696;-88
2022/08/18 08:37:42;;;;;;;17.10;9.50;;;;;;;26.82;62.86;97635.16;104400;1294;23291;-87
2022/08/18 08:40:27;;;;;;;15.20;9.50;;;;;;;26.95;62.87;97640.27;104392;1294;25282;-88
2022/08/18 08:43:07;;;;;;;13.80;9.60;;;;;;;27.10;62.05;97648.39;104427;1293;24129;-87
2022/08/18 08:45:56;;;;;;;12.40;9.90;;;;;;;27.16;60.69;97656.54;104464;1293;22626;-85
2022/08/18 08:48:28;;;;;;;13.60;9.30;;;;;;;27.20;60.28;97657.61;105297;1286;22678;-88
2022/08/18 08:50:58;;;;;;;14.70;9.50;;;;;;;27.23;59.61;97661.13;105416;1285;22834;-87
2022/08/18 08:53:33;;;;;;;10.50;9.20;;;;;;;27.24;59.65;97664.59;105234;1287;25432;-87
2022/08/18 08:56:15;;;;;;;15.30;10.10;;;;;;;27.29;59.44;97668.57;105590;1282;23085;-87
2022/08/18 08:59:00;;;;;;;13.50;9.60;;;;;;;27.38;59.22;97674.04;105592;1282;25365;-87
2022/08/18 09:01:54;;;;;;;12.00;9.60;;;;;;;27.50;58.66;97676.48;105768;1281;22619;-87
2022/08/18 09:04:25;;;;;;;17.90;9.70;;;;;;;27.58;58.91;97675.35;105716;1281;25355;-90
2022/08/18 09:07:11;;;;;;;14.40;9.60;;;;;;;27.67;58.90;97665.88;105664;1282;24216;-88
2022/08/18 09:09:51;;;;;;;12.60;9.40;;;;;;;27.79;58.54;97660.58;105620;1282;25333;-86
2022/08/18 09:12:35;;;;;;;16.20;9.20;;;;;;;27.87;57.66;97661.26;105760;1281;23035;-87
2022/08/18 09:15:21;;;;;;;14.30;9.60;;;;;;;27.95;57.59;97661.77;105776;1281;25366;-88
2022/08/18 09:18:10;;;;;;;17.30;9.30;;;;;;;28.01;57.19;97663.25;105898;1281;22600;-86
2022/08/18 09:21:05;;;;;;;14.10;9.10;;;;;;;28.05;57.12;97665.08;105588;1281;22560;-87
2022/08/18 09:23:41;;;;;;;13.70;10.20;;;;;;;28.15;57.22;97669.66;105707;1281;22549;-88
2022/08/18 09:26:38;;;;;;;13.80;9.30;;;;;;;28.21;56.35;97671.92;105665;1281;22619;-87
2022/08/18 09:29:20;;;;;;;15.10;9.90;;;;;;;28.26;55.59;97664.80;105748;1281;22574;-88
2022/08/18 09:32:28;;;;;;;16.80;8.70;;;;;;;28.30;56.16;97656.27;105737;1281;24947;-87
2022/08/18 09:35:31;;;;;;;19.40;9.00;;;;;;;28.43;56.41;97651.62;105708;1281;22698;-89
2022/08/18 09:44:12;;;;;;;14.20;8.90;;;;;;;28.70;55.15;97633.46;105678;1284;22895;-91
2022/08/18 09:46:56;;;;;;;11.10;8.80;;;;;;;28.87;55.21;97630.66;105739;1281;25293;-89
2022/08/18 09:49:24;;;;;;;12.20;8.50;;;;;;;28.99;53.87;97630.73;106104;1281;22570;-85
2022/08/18 09:52:20;;;;;;;14.40;8.60;;;;;;;29.04;53.48;97634.22;104872;1281;1371482;-86
2022/08/18 09:55:14;;;;;;;11.90;9.10;;;;;;;29.17;53.75;97635.92;105612;1281;26018;-88
2022/08/18 09:57:45;;;;;;;11.50;8.70;;;;;;;29.25;53.28;97642.96;105821;1281;23286;-86
2022/08/18 10:00:26;;;;;;;9.40;7.90;;;;;;;29.31;52.99;97641.73;105724;1282;22767;-87
2022/08/18 10:02:55;;;;;;;15.00;8.20;;;;;;;29.36;52.59;97642.02;105819;1283;22790;-86
2022/08/18 10:05:27;;;;;;;13.10;7.70;;;;;;;29.39;52.41;97641.31;105740;1281;24106;-87
2022/08/18 10:08:04;;;;;;;14.20;8.10;;;;;;;29.44;52.53;97642.48;105766;1283;23151;-86
2022/08/18 10:10:38;;;;;;;14.60;8.70;;;;;;;29.55;52.73;97638.40;106025;1281;22826;-86
2022/08/18 10:13:48;;;;;;;11.50;8.60;;;;;;;29.67;52.65;97636.59;105850;1281;23989;-86
2022/08/18 10:16:54;;;;;;;12.80;7.80;;;;;;;29.78;51.16;97632.27;105606;1283;24535;-86
2022/08/18 10:20:20;;;;;;;13.40;7.80;;;;;;;29.84;50.78;97631.25;106048;1281;22658;-87
2022/08/18 10:22:55;;;;;;;13.10;7.80;;;;;;;29.88;50.89;97630.45;106275;1281;22694;-87
2022/08/18 10:25:41;;;;;;;25.10;7.80;;;;;;;29.95;50.03;97628.67;105919;1281;22549;-86
2022/08/18 10:28:48;;;;;;;10.50;7.80;;;;;;;29.99;49.88;97630.34;105845;1281;22574;-87
2022/08/18 10:31:18;;;;;;;13.40;7.40;;;;;;;30.02;49.54;97627.96;106019;1281;22573;-87
2022/08/18 10:33:58;;;;;;;10.90;7.50;;;;;;;30.04;49.62;97624.73;106229;1281;25359;-86
2022/08/18 10:36:48;;;;;;;10.30;7.10;;;;;;;30.18;49.59;97630.34;105994;1281;24217;-85
2022/08/18 10:39:41;;;;;;;11.30;7.00;;;;;;;30.36;48.71;97624.64;106093;1281;22655;-88
2022/08/18 10:42:25;;;;;;;;;;;;;;;30.45;48.83;97618.91;106061;1281;22877;-87
2022/08/18 10:45:24;;;;;;;16.50;7.40;;;;;;;30.60;48.96;97611.13;106165;1281;23962;-87
2022/08/18 10:48:22;;;;;;;12.10;8.00;;;;;;;30.74;47.63;97602.13;105869;1281;25479;-85
2022/08/18 10:51:10;;;;;;;12.80;7.10;;;;;;;30.85;48.13;97602.51;106582;1281;22648;-88
2022/08/18 10:53:50;;;;;;;10.00;7.40;;;;;;;30.93;47.84;97602.02;106930;1281;23204;-86
2022/08/18 10:56:53;;;;;;;13.10;7.50;;;;;;;31.02;46.49;97597.08;106430;1281;23364;-87
2022/08/18 10:59:29;;;;;;;11.30;7.10;;;;;;;31.03;46.36;97601.18;106076;1281;25363;-89
2022/08/18 11:02:45;;;;;;;14.10;7.50;;;;;;;31.08;46.51;97597.06;105990;1281;25613;-88
2022/08/18 11:05:34;;;;;;;10.90;6.80;;;;;;;31.18;46.62;97595.63;108031;1281;24126;-86
2022/08/18 11:08:16;;;;;;;9.70;6.80;;;;;;;31.31;46.54;97597.33;108567;1281;22634;-85
2022/08/18 11:10:49;;;;;;;11.10;7.40;;;;;;;31.42;45.76;97589.42;108557;1281;22543;-87
2022/08/18 11:14:01;;;;;;;13.10;6.50;;;;;;;31.52;45.31;97591.04;108356;1281;22522;-89
2022/08/18 11:17:13;;;;;;;12.20;7.50;;;;;;;31.57;44.86;97587.44;107631;1288;22589;-88
2022/08/18 11:19:45;;;;;;;9.10;7.40;;;;;;;31.62;44.02;97583.00;107472;1289;22853;-85
2022/08/18 11:22:31;;;;;;;13.00;8.00;;;;;;;31.65;44.09;97579.70;107235;1290;22667;-84
2022/08/18 11:25:16;;;;;;;15.10;7.90;;;;;;;31.69;43.57;97573.20;106495;1289;23791;-86
2022/08/18 11:27:46;;;;;;;;;;;;;;;31.77;43.65;97577.11;107323;1289;22565;-85
2022/08/18 11:30:16;;;;;;;17.80;6.70;;;;;;;31.82;43.45;97577.64;107376;1289;22754;-86
2022/08/18 11:32:44;;;;;;;13.20;6.80;;;;;;;31.91;43.36;97571.87;107454;1289;22591;-85
2022/08/18 11:35:48;;;;;;;10.20;6.60;;;;;;;32.07;43.11;97571.89;107435;1289;22867;-85
2022/08/18 11:38:21;;;;;;;11.50;6.40;;;;;;;32.14;43.00;97565.41;106964;1290;22994;-87
2022/08/18 11:41:19;;;;;;;13.00;6.70;;;;;;;32.16;41.98;97568.16;107184;1289;22972;-87
2022/08/18 11:47:32;;;;;;;10.30;6.80;;;;;;;32.24;42.64;97561.30;107282;1288;22668;-86
2022/08/18 11:50:12;;;;;;;13.00;7.60;;;;;;;32.45;42.29;97560.35;106235;1290;23335;-87
2022/08/18 11:53:17;;;;;;;12.90;7.70;;;;;;;32.59;41.95;97562.35;105109;1288;24507;-87
2022/08/18 11:56:03;;;;;;;12.90;6.80;;;;;;;32.76;42.24;97553.34;105748;1281;25389;-87
2022/08/18 11:58:47;;;;;;;13.80;7.20;;;;;;;32.89;42.21;97548.48;106322;1281;22541;-87
2022/08/18 12:01:32;;;;;;;12.90;7.30;;;;;;;32.96;41.04;97543.80;106323;1281;25355;-85
2022/08/18 12:04:14;;;;;;;12.20;6.60;;;;;;;32.98;41.20;97536.02;106096;1281;22697;-88
2022/08/18 12:06:44;;;;;;;10.20;6.00;;;;;;;33.10;40.75;97528.95;106091;1281;22544;-88
2022/08/18 12:09:20;;;;;;;9.90;6.90;;;;;;;33.10;40.21;97525.91;106038;1280;24169;-89
2022/08/18 12:12:30;;;;;;;12.90;6.70;;;;;;;33.19;40.96;97518.88;106100;1281;25590;-87
2022/08/18 12:15:10;;;;;;;14.20;7.70;;;;;;;33.40;39.75;97522.66;106094;1281;24203;-88
2022/08/18 12:17:53;;;;;;;13.60;6.90;;;;;;;33.44;39.33;97524.02;106074;1281;22701;-87
2022/08/18 12:20:21;;;;;;;10.90;6.60;;;;;;;33.50;39.62;97528.15;106044;1281;25366;-88
2022/08/18 12:26:33;;;;;;;10.30;7.00;;;;;;;33.62;39.20;97520.02;106111;1281;24255;-88
2022/08/18 12:29:06;;;;;;;11.70;6.60;;;;;;;33.64;38.95;97516.59;106106;1281;24272;-88
2022/08/18 12:31:38;;;;;;;11.30;6.90;;;;;;;33.57;38.89;97515.19;106002;1281;25494;-89
2022/08/18 12:34:26;;;;;;;15.60;7.90;;;;;;;33.65;38.90;97503.62;105831;1281;24158;-87